createdAt,value
2022-10-20T00:00:23.190Z,12.00
2022-10-20T00:02:50.096Z,12.32
2022-10-20T00:05:17.432Z,17.10
2022-10-20T00:07:44.409Z,15.20
2022-10-20T00:10:11.411Z,14.45
2022-10-20T00:12:38.624Z,17.52
2022-10-20T00:15:06.094Z,15.65
2022-10-20T00:17:32.992Z,12.75
2022-10-20T00:19:59.935Z,16.42
2022-10-20T00:22:26.867Z,12.85
2022-10-20T00:24:53.775Z,17.33
2022-10-20T00:27:20.673Z,19.70
2022-10-20T00:29:48.887Z,13.90
2022-10-20T00:32:15.990Z,18.58
2022-10-20T00:34:43.143Z,18.48
2022-10-20T00:37:10.007Z,15.77
2022-10-20T00:39:36.885Z,18.20
2022-10-20T00:42:04.856Z,16.98
2022-10-20T00:44:50.247Z,16.48
2022-10-20T00:47:40.147Z,17.33
2022-10-20T00:50:16.878Z,17.88
2022-10-20T00:52:44.974Z,23.75
2022-10-20T00:55:15.659Z,15.32
2022-10-20T00:57:44.187Z,20.40
2022-10-20T01:00:11.590Z,15.57
2022-10-20T01:02:38.605Z,19.08
2022-10-20T01:05:06.330Z,19.00
2022-10-20T01:07:33.317Z,16.08
2022-10-20T01:10:00.649Z,18.45
2022-10-20T01:12:50.529Z,17.02
2022-10-20T01:15:39.182Z,19.27
2022-10-20T01:18:28.842Z,13.23
2022-10-20T01:21:05.353Z,14.88
2022-10-20T01:23:38.287Z,14.85
2022-10-20T01:26:14.016Z,25.75
2022-10-20T01:29:14.791Z,21.80
2022-10-20T01:31:49.004Z,14.57
2022-10-20T01:34:28.520Z,17.52
2022-10-20T01:37:28.327Z,12.48
2022-10-20T01:40:22.647Z,15.63
2022-10-20T01:42:51.394Z,15.27
2022-10-20T01:45:19.336Z,14.13
2022-10-20T01:47:47.965Z,13.52
2022-10-20T01:50:15.303Z,14.45
2022-10-20T01:52:42.166Z,14.43
2022-10-20T01:55:17.945Z,17.23
2022-10-20T01:58:14.885Z,10.73
2022-10-20T02:00:42.540Z,13.57
2022-10-20T02:03:27.873Z,14.32
2022-10-20T02:06:19.594Z,15.98
2022-10-20T02:08:53.117Z,14.55
2022-10-20T02:11:26.289Z,15.63
2022-10-20T02:16:31.133Z,16.65
2022-10-20T02:21:30.898Z,13.90
2022-10-20T02:24:03.609Z,14.10
2022-10-20T02:26:32.424Z,11.00
2022-10-20T02:29:01.726Z,13.02
2022-10-20T02:31:28.682Z,13.93
2022-10-20T02:33:56.767Z,17.33
2022-10-20T02:36:26.949Z,14.02
2022-10-20T02:38:54.081Z,15.30
2022-10-20T02:41:20.953Z,13.98
2022-10-20T02:43:47.881Z,13.27
2022-10-20T02:48:46.498Z,9.75
2022-10-20T02:51:13.723Z,8.98
2022-10-20T02:53:40.579Z,11.52
2022-10-20T02:56:07.707Z,8.02
2022-10-20T02:58:34.574Z,11.00
2022-10-20T03:01:01.684Z,9.15
2022-10-20T03:03:28.567Z,11.18
2022-10-20T03:05:55.578Z,14.40
2022-10-20T03:08:22.597Z,12.15
2022-10-20T03:10:49.420Z,6.20
2022-10-20T03:13:16.427Z,13.80
2022-10-20T03:15:43.375Z,13.80
2022-10-20T03:18:10.276Z,6.97
2022-10-20T03:20:37.211Z,7.45
2022-10-20T03:23:04.147Z,15.68
2022-10-20T03:25:31.936Z,13.77
2022-10-20T03:27:59.130Z,15.52
2022-10-20T03:30:26.169Z,9.30
2022-10-20T03:32:53.331Z,4.55
2022-10-20T03:35:20.250Z,6.70
2022-10-20T03:37:47.143Z,4.95
2022-10-20T03:40:14.159Z,10.13
2022-10-20T03:42:41.103Z,7.40
2022-10-20T03:45:08.651Z,5.88
2022-10-20T03:47:35.565Z,8.52
2022-10-20T03:50:02.486Z,8.77
2022-10-20T03:52:29.458Z,6.50
2022-10-20T03:54:56.383Z,6.25
2022-10-20T03:57:23.245Z,4.78
2022-10-20T03:59:50.158Z,5.72
2022-10-20T04:02:50.192Z,9.05
2022-10-20T04:05:19.663Z,5.18
2022-10-20T04:07:47.126Z,8.30
2022-10-20T04:10:15.607Z,6.18
2022-10-20T04:12:42.935Z,4.50
2022-10-20T04:15:10.545Z,4.13
2022-10-20T04:17:43.479Z,5.03
2022-10-20T04:20:10.889Z,5.40
2022-10-20T04:22:38.855Z,5.28
2022-10-20T04:25:06.796Z,6.63
2022-10-20T04:27:33.894Z,7.70
2022-10-20T04:30:01.077Z,6.25
2022-10-20T04:32:28.527Z,5.10
2022-10-20T04:34:55.403Z,6.50
2022-10-20T04:37:22.345Z,6.38
2022-10-20T04:39:51.129Z,4.75
2022-10-20T04:42:18.841Z,3.88
2022-10-20T04:44:45.900Z,4.35
2022-10-20T04:47:13.199Z,7.05
2022-10-20T04:49:41.280Z,7.40
2022-10-20T04:52:08.088Z,2.97
2022-10-20T04:54:35.033Z,6.50
2022-10-20T04:57:02.006Z,6.57
2022-10-20T04:59:28.858Z,6.53
2022-10-20T05:01:55.809Z,4.57
2022-10-20T05:04:22.728Z,5.53
2022-10-20T05:06:50.133Z,5.28
2022-10-20T05:09:17.288Z,6.65
2022-10-20T05:11:44.551Z,7.65
2022-10-20T05:14:11.687Z,5.07
2022-10-20T05:16:38.614Z,7.82
2022-10-20T05:19:05.541Z,6.47
2022-10-20T05:21:32.742Z,7.22
2022-10-20T05:24:01.630Z,9.77
2022-10-20T05:26:32.546Z,5.50
2022-10-20T05:28:59.387Z,5.50
2022-10-20T05:31:26.314Z,6.82
2022-10-20T05:33:54.853Z,9.52
2022-10-20T05:36:25.259Z,7.43
2022-10-20T05:38:53.924Z,9.02
2022-10-20T05:41:22.758Z,7.75
2022-10-20T05:43:55.154Z,10.35
2022-10-20T05:46:22.257Z,9.27
2022-10-20T05:48:49.147Z,8.48
2022-10-20T05:51:20.507Z,12.85
2022-10-20T05:53:47.432Z,9.23
2022-10-20T05:56:18.180Z,18.00
2022-10-20T05:58:45.961Z,13.52
2022-10-20T06:01:20.413Z,12.73
2022-10-20T06:03:52.020Z,12.40
2022-10-20T06:06:20.573Z,12.73
2022-10-20T06:08:47.965Z,12.95
2022-10-20T06:11:15.683Z,13.90
2022-10-20T06:13:43.666Z,16.70
2022-10-20T06:16:14.690Z,13.27
2022-10-20T06:18:43.993Z,15.07
2022-10-20T06:21:22.646Z,13.57
2022-10-20T06:23:49.960Z,14.43
2022-10-20T06:26:19.514Z,14.05
2022-10-20T06:28:47.945Z,13.32
2022-10-20T06:31:19.065Z,10.00
2022-10-20T06:33:46.867Z,10.85
2022-10-20T06:36:14.448Z,13.43
2022-10-20T06:38:41.998Z,12.38
2022-10-20T06:41:12.346Z,12.32
2022-10-20T06:43:39.356Z,14.52
2022-10-20T06:46:08.408Z,10.63
2022-10-20T06:48:35.965Z,12.50
2022-10-20T06:51:05.621Z,11.30
2022-10-20T06:53:34.825Z,16.30
2022-10-20T06:56:06.372Z,12.88
2022-10-20T06:58:37.171Z,11.75
2022-10-20T07:01:09.999Z,18.65
2022-10-20T07:03:38.260Z,12.98
2022-10-20T07:06:06.225Z,18.27
2022-10-20T07:08:34.669Z,14.38
2022-10-20T07:11:08.815Z,16.95
2022-10-20T07:13:37.101Z,14.80
2022-10-20T07:16:05.416Z,16.17
2022-10-20T07:18:32.502Z,14.98
2022-10-20T07:21:01.341Z,15.48
2022-10-20T07:23:30.107Z,17.02
2022-10-20T07:26:12.283Z,17.75
2022-10-20T07:28:42.602Z,14.25
2022-10-20T07:31:12.783Z,12.68
2022-10-20T07:33:39.922Z,15.20
2022-10-20T07:36:24.797Z,15.60
2022-10-20T07:38:53.633Z,14.65
2022-10-20T07:41:21.134Z,13.25
2022-10-20T07:43:48.357Z,11.30
2022-10-20T07:46:15.643Z,11.88
2022-10-20T07:48:42.590Z,15.73
2022-10-20T07:51:16.900Z,12.10
2022-10-20T07:53:44.772Z,14.55
2022-10-20T07:56:12.248Z,11.45
2022-10-20T07:58:39.368Z,15.63
2022-10-20T08:01:06.444Z,13.43
2022-10-20T08:03:33.691Z,14.65
2022-10-20T08:06:00.838Z,12.05
2022-10-20T08:08:27.862Z,12.00
2022-10-20T08:10:54.929Z,15.30
2022-10-20T08:13:21.907Z,9.63
2022-10-20T08:15:50.909Z,22.23
2022-10-20T08:18:17.909Z,11.50
2022-10-20T08:20:48.536Z,13.25
2022-10-20T08:23:16.130Z,13.00
2022-10-20T08:25:43.169Z,10.38
2022-10-20T08:28:10.585Z,12.90
2022-10-20T08:30:37.717Z,10.85
2022-10-20T08:33:04.576Z,9.30
2022-10-20T08:35:31.449Z,9.52
2022-10-20T08:37:58.285Z,13.25
2022-10-20T08:40:28.283Z,10.80
2022-10-20T08:42:55.355Z,17.60
2022-10-20T08:45:27.110Z,11.13
2022-10-20T08:47:56.630Z,10.73
2022-10-20T08:50:24.931Z,10.60
2022-10-20T08:52:54.830Z,12.15
2022-10-20T08:55:32.253Z,12.43
2022-10-20T08:58:10.489Z,14.35
2022-10-20T09:00:38.553Z,9.73
2022-10-20T09:03:18.867Z,9.80
2022-10-20T09:05:49.684Z,10.27
2022-10-20T09:08:16.627Z,8.55
2022-10-20T09:10:48.966Z,12.35
2022-10-20T09:13:27.793Z,11.40
2022-10-20T09:16:08.445Z,8.77
2022-10-20T09:18:35.492Z,9.85
2022-10-20T09:21:16.454Z,10.57
2022-10-20T09:23:45.956Z,9.75
2022-10-20T09:26:30.419Z,9.52
2022-10-20T09:29:13.100Z,13.10
2022-10-20T09:32:03.773Z,11.25
2022-10-20T09:34:38.464Z,10.48
2022-10-20T09:37:12.912Z,8.43
2022-10-20T09:39:54.913Z,10.57
2022-10-20T09:42:29.219Z,14.87
2022-10-20T09:45:07.921Z,11.15
2022-10-20T09:47:35.387Z,10.48
2022-10-20T09:50:06.415Z,8.25
2022-10-20T09:52:44.531Z,14.82
2022-10-20T09:55:28.271Z,8.02
2022-10-20T09:57:56.343Z,9.50
2022-10-20T10:00:36.799Z,11.35
2022-10-20T10:03:09.313Z,12.10
2022-10-20T10:05:36.266Z,7.95
2022-10-20T10:08:03.114Z,12.50
2022-10-20T10:10:31.734Z,11.52
2022-10-20T10:15:37.733Z,11.07
2022-10-20T10:18:22.245Z,13.27
2022-10-20T10:20:59.011Z,10.93
2022-10-20T10:23:26.856Z,11.50
2022-10-20T10:25:57.896Z,9.23
2022-10-20T10:28:38.903Z,12.63
2022-10-20T10:31:23.618Z,7.32
2022-10-20T10:33:58.172Z,10.85
2022-10-20T10:36:36.040Z,11.43
2022-10-20T10:39:05.393Z,11.52
2022-10-20T10:41:55.357Z,13.93
2022-10-20T10:44:44.090Z,9.90
2022-10-20T10:47:32.552Z,7.55
2022-10-20T10:50:24.111Z,9.20
2022-10-20T10:53:10.030Z,11.98
2022-10-20T10:56:16.312Z,13.13
2022-10-20T10:59:10.354Z,12.27
2022-10-20T11:01:43.624Z,14.93
2022-10-20T11:04:47.262Z,6.82
2022-10-20T11:07:20.354Z,11.65
2022-10-20T11:13:09.646Z,12.55
2022-10-20T11:16:06.171Z,13.00
2022-10-20T11:18:49.389Z,17.50
2022-10-20T11:24:03.678Z,11.10
2022-10-20T11:26:42.129Z,10.32
2022-10-20T11:29:17.104Z,15.25
2022-10-20T11:31:54.695Z,16.63
2022-10-20T11:34:27.099Z,11.63
2022-10-20T11:37:03.816Z,12.95
2022-10-20T11:39:43.014Z,13.98
2022-10-20T11:42:41.825Z,21.52
2022-10-20T11:45:33.130Z,8.50
2022-10-20T11:48:29.552Z,16.20
2022-10-20T11:51:11.505Z,9.05
2022-10-20T11:54:07.678Z,13.55
2022-10-20T11:57:09.445Z,11.73
2022-10-20T11:59:54.952Z,15.90
2022-10-20T12:02:52.467Z,11.95
2022-10-20T12:05:44.163Z,18.20
2022-10-20T12:08:30.488Z,12.52
2022-10-20T12:11:07.183Z,12.75
2022-10-20T12:14:15.179Z,15.55
2022-10-20T12:16:53.873Z,14.50
2022-10-20T12:19:25.404Z,12.32
2022-10-20T12:22:02.322Z,14.25
2022-10-20T12:24:39.772Z,12.75
2022-10-20T12:27:09.353Z,11.65
2022-10-20T12:29:36.185Z,16.27
2022-10-20T12:32:21.651Z,15.52
2022-10-20T12:34:59.563Z,13.90
2022-10-20T12:37:30.401Z,14.13
2022-10-20T12:40:20.168Z,17.95
2022-10-20T12:42:48.877Z,18.42
2022-10-20T12:45:18.429Z,14.65
2022-10-20T12:47:57.018Z,10.27
2022-10-20T12:50:40.335Z,20.17
2022-10-20T12:55:45.457Z,17.08
2022-10-20T12:58:19.312Z,17.67
2022-10-20T13:00:51.644Z,18.25
2022-10-20T13:04:03.206Z,17.27
2022-10-20T13:06:31.770Z,18.17
2022-10-20T13:09:04.670Z,16.05
2022-10-20T13:14:27.840Z,13.90
2022-10-20T13:19:45.413Z,18.83
2022-10-20T13:22:31.687Z,13.82
2022-10-20T13:24:59.912Z,24.05
2022-10-20T13:27:28.975Z,22.40
2022-10-20T13:29:56.095Z,15.70
2022-10-20T13:32:30.851Z,19.73
2022-10-20T13:35:19.096Z,18.40
2022-10-20T13:38:03.556Z,19.58
2022-10-20T13:40:39.881Z,18.90
2022-10-20T13:43:31.177Z,21.23
2022-10-20T13:46:26.379Z,21.27
2022-10-20T13:49:08.048Z,23.55
2022-10-20T13:51:43.465Z,18.92
2022-10-20T13:54:24.227Z,19.02
2022-10-20T13:56:51.632Z,23.52
2022-10-20T13:59:19.434Z,17.08
2022-10-20T14:01:51.405Z,16.42
2022-10-20T14:04:28.620Z,19.77
2022-10-20T14:06:56.482Z,22.58
2022-10-20T14:09:24.960Z,22.00
2022-10-20T14:11:55.585Z,28.40
2022-10-20T14:14:25.579Z,28.75
2022-10-20T14:16:58.773Z,32.90
2022-10-20T14:19:30.658Z,22.08
2022-10-20T14:22:00.385Z,27.20
2022-10-20T14:24:31.663Z,18.35
2022-10-20T14:27:00.827Z,23.58
2022-10-20T14:29:33.910Z,25.27
2022-10-20T14:34:35.337Z,22.52
2022-10-20T14:37:03.234Z,25.50
2022-10-20T14:39:40.552Z,25.02
2022-10-20T14:42:30.003Z,25.23
2022-10-20T14:44:57.985Z,19.40
2022-10-20T14:47:25.591Z,26.23
2022-10-20T14:49:54.051Z,24.58
2022-10-20T14:52:23.302Z,27.80
2022-10-20T14:54:51.574Z,32.70
2022-10-20T14:57:19.037Z,23.55
2022-10-20T15:00:03.777Z,27.38
2022-10-20T15:02:33.050Z,27.60
2022-10-20T15:05:39.825Z,22.88
2022-10-20T15:08:31.332Z,20.65
2022-10-20T15:10:58.696Z,21.45
2022-10-20T15:13:33.008Z,20.13
2022-10-20T15:16:02.389Z,23.02
2022-10-20T15:18:29.947Z,26.35
2022-10-20T15:20:56.915Z,18.98
2022-10-20T15:23:29.973Z,24.35
2022-10-20T15:28:48.114Z,26.73
2022-10-20T15:31:32.977Z,21.45
2022-10-20T15:33:59.853Z,24.33
2022-10-20T15:36:41.734Z,22.77
2022-10-20T15:39:09.385Z,26.10
2022-10-20T15:41:36.941Z,21.40
2022-10-20T15:44:21.839Z,28.63
2022-10-20T15:46:50.539Z,21.52
2022-10-20T15:49:17.422Z,20.75
2022-10-20T15:51:46.293Z,22.88
2022-10-20T15:54:18.563Z,20.13
2022-10-20T15:56:45.902Z,18.65
2022-10-20T15:59:12.750Z,20.45
2022-10-20T16:01:39.767Z,22.58
2022-10-20T16:04:23.339Z,22.10
2022-10-20T16:06:57.685Z,24.30
2022-10-20T16:09:26.161Z,18.85
2022-10-20T16:11:53.111Z,21.05
2022-10-20T16:14:19.944Z,17.98
2022-10-20T16:16:46.843Z,18.52
2022-10-20T16:19:14.036Z,20.73
2022-10-20T16:21:41.626Z,17.52
2022-10-20T16:24:08.589Z,13.40
2022-10-20T16:26:35.537Z,16.52
2022-10-20T16:29:02.560Z,24.92
2022-10-20T16:31:29.547Z,19.58
2022-10-20T16:33:59.490Z,24.95
2022-10-20T16:36:26.364Z,17.75
2022-10-20T16:38:57.069Z,14.02
2022-10-20T16:41:24.044Z,22.52
2022-10-20T16:43:50.966Z,18.58
2022-10-20T16:46:17.811Z,22.55
2022-10-20T16:48:48.078Z,16.10
2022-10-20T16:51:16.197Z,18.13
2022-10-20T16:53:43.455Z,16.90
2022-10-20T16:56:10.275Z,18.27
2022-10-20T16:58:37.229Z,17.83
2022-10-20T17:01:09.850Z,15.10
2022-10-20T17:03:38.210Z,21.02
2022-10-20T17:06:07.223Z,19.10
2022-10-20T17:08:36.077Z,18.92
2022-10-20T17:11:08.770Z,20.02
2022-10-20T17:13:37.129Z,18.02
2022-10-20T17:16:10.000Z,21.40
2022-10-20T17:18:37.046Z,17.17
2022-10-20T17:21:04.578Z,16.30
2022-10-20T17:23:35.235Z,38.10
2022-10-20T17:26:04.973Z,31.17
2022-10-20T17:28:33.407Z,21.88
2022-10-20T17:31:00.321Z,31.45
2022-10-20T17:33:28.233Z,25.42
2022-10-20T17:35:57.123Z,24.88
2022-10-20T17:38:24.703Z,17.88
2022-10-20T17:40:51.668Z,16.85
2022-10-20T17:43:18.733Z,13.48
2022-10-20T17:45:58.059Z,19.05
2022-10-20T17:48:25.130Z,17.17
2022-10-20T17:51:17.047Z,12.45
2022-10-20T17:53:45.722Z,15.88
2022-10-20T17:56:15.145Z,15.73
2022-10-20T17:58:43.549Z,15.10
2022-10-20T18:01:19.384Z,13.38
2022-10-20T18:03:47.825Z,12.98
2022-10-20T18:06:18.452Z,20.60
2022-10-20T18:08:46.732Z,17.00
2022-10-20T18:11:22.095Z,14.32
2022-10-20T18:13:49.307Z,12.70
2022-10-20T18:16:18.106Z,15.45
2022-10-20T18:18:45.104Z,19.60
2022-10-20T18:21:13.529Z,39.47
2022-10-20T18:23:43.776Z,41.00
2022-10-20T18:26:13.190Z,14.13
2022-10-20T18:28:42.074Z,24.35
2022-10-20T18:31:18.036Z,29.33
2022-10-20T18:33:45.599Z,8.73
2022-10-20T18:36:15.361Z,12.68
2022-10-20T18:38:43.700Z,16.27
2022-10-20T18:41:21.773Z,13.75
2022-10-20T18:43:58.005Z,14.43
2022-10-20T18:46:28.578Z,14.05
2022-10-20T18:48:56.240Z,10.13
2022-10-20T18:51:23.488Z,19.85
2022-10-20T18:53:53.733Z,14.57
2022-10-20T18:56:22.733Z,12.82
2022-10-20T18:58:55.337Z,18.13
2022-10-20T19:01:24.132Z,15.25
2022-10-20T19:03:52.761Z,17.50
2022-10-20T19:06:27.815Z,17.15
2022-10-20T19:08:56.698Z,12.88
2022-10-20T19:11:28.611Z,12.82
2022-10-20T19:17:33.617Z,16.48
2022-10-20T19:20:00.427Z,18.83
2022-10-20T19:22:29.388Z,13.68
2022-10-20T19:24:56.348Z,16.73
2022-10-20T19:27:27.374Z,17.17
2022-10-20T19:29:55.990Z,20.05
2022-10-20T19:32:22.856Z,14.57
2022-10-20T19:34:49.660Z,14.38
2022-10-20T19:37:16.697Z,15.13
2022-10-20T19:39:43.551Z,13.10
2022-10-20T19:42:11.239Z,13.43
2022-10-20T19:44:38.401Z,13.18
2022-10-20T19:47:06.196Z,12.82
2022-10-20T19:49:33.050Z,19.63
2022-10-20T19:52:00.367Z,15.80
2022-10-20T19:54:27.473Z,16.70
2022-10-20T19:56:54.342Z,12.82
2022-10-20T19:59:21.481Z,14.25
2022-10-20T20:01:49.717Z,15.90
2022-10-20T20:04:16.743Z,14.18
2022-10-20T20:06:43.533Z,20.00
2022-10-20T20:09:11.578Z,19.30
2022-10-20T20:11:39.248Z,19.67
2022-10-20T20:14:09.006Z,13.35
2022-10-20T20:16:36.250Z,18.27
2022-10-20T20:19:03.435Z,20.90
2022-10-20T20:21:30.541Z,17.85
2022-10-20T20:24:01.052Z,16.27
2022-10-20T20:26:33.453Z,19.13
2022-10-20T20:29:00.586Z,14.00
2022-10-20T20:31:28.008Z,18.20
2022-10-20T20:33:56.851Z,18.50
2022-10-20T20:36:26.223Z,19.02
2022-10-20T20:38:55.125Z,18.20
2022-10-20T20:41:26.048Z,17.17
2022-10-20T20:43:53.152Z,19.77
2022-10-20T20:46:21.017Z,21.10
2022-10-20T20:48:47.809Z,15.70
2022-10-20T20:51:15.393Z,14.48
2022-10-20T20:53:42.460Z,14.50
2022-10-20T20:56:12.223Z,11.80
2022-10-20T20:58:40.728Z,18.17
2022-10-20T21:01:19.123Z,14.40
2022-10-20T21:03:46.696Z,18.45
2022-10-20T21:06:16.892Z,15.00
2022-10-20T21:08:46.403Z,22.38
2022-10-20T21:11:14.241Z,14.35
2022-10-20T21:13:42.586Z,16.65
2022-10-20T21:16:13.897Z,16.25
2022-10-20T21:18:42.065Z,12.52
2022-10-20T21:21:14.964Z,15.70
2022-10-20T21:23:42.288Z,30.77
2022-10-20T21:26:10.865Z,18.60
2022-10-20T21:28:37.975Z,15.63
2022-10-20T21:31:09.658Z,23.85
2022-10-20T21:33:37.321Z,16.20
2022-10-20T21:36:23.709Z,16.33
2022-10-20T21:38:50.849Z,16.75
2022-10-20T21:41:22.643Z,15.38
2022-10-20T21:43:51.769Z,16.02
2022-10-20T21:46:24.266Z,16.92
2022-10-20T21:48:53.171Z,18.00
2022-10-20T21:51:25.320Z,18.92
2022-10-20T21:53:59.908Z,17.50
2022-10-20T21:56:27.475Z,14.75
2022-10-20T21:58:55.014Z,15.00
2022-10-20T22:01:24.426Z,17.00
2022-10-20T22:03:52.988Z,15.13
2022-10-20T22:06:21.841Z,13.05
2022-10-20T22:08:50.508Z,17.85
2022-10-20T22:11:21.052Z,15.07
2022-10-20T22:13:48.312Z,15.35
2022-10-20T22:16:17.709Z,12.20
2022-10-20T22:18:45.040Z,11.70
2022-10-20T22:21:15.490Z,10.50
2022-10-20T22:23:43.841Z,13.10
2022-10-20T22:26:11.329Z,11.80
2022-10-20T22:28:38.491Z,17.13
2022-10-20T22:31:06.412Z,15.05
2022-10-20T22:33:33.596Z,12.13
2022-10-20T22:36:00.437Z,14.68
2022-10-20T22:38:27.224Z,16.50
2022-10-20T22:40:59.046Z,15.05
2022-10-20T22:43:26.596Z,13.05
2022-10-20T22:45:53.392Z,13.90
2022-10-20T22:48:20.379Z,11.88
2022-10-20T22:50:47.446Z,17.52
2022-10-20T22:53:14.455Z,15.90
2022-10-20T22:55:41.369Z,19.15
2022-10-20T22:58:08.241Z,14.20
2022-10-20T23:00:35.204Z,11.57
2022-10-20T23:03:02.012Z,13.68
2022-10-20T23:05:28.840Z,13.63
2022-10-20T23:07:55.644Z,19.60
2022-10-20T23:10:22.437Z,19.20
2022-10-20T23:12:49.248Z,15.90
2022-10-20T23:15:16.087Z,18.02
2022-10-20T23:17:42.921Z,17.13
2022-10-20T23:20:10.333Z,21.63
2022-10-20T23:22:37.132Z,14.35
2022-10-20T23:25:04.268Z,22.27
2022-10-20T23:27:33.748Z,22.75
2022-10-20T23:30:00.548Z,16.75
2022-10-20T23:32:27.472Z,17.50
2022-10-20T23:34:55.135Z,21.95
2022-10-20T23:37:23.765Z,17.77
2022-10-20T23:39:50.734Z,19.63
2022-10-20T23:42:20.463Z,17.52
2022-10-20T23:44:47.370Z,16.52
2022-10-20T23:47:14.196Z,17.95
2022-10-20T23:49:41.053Z,23.27
2022-10-20T23:52:07.852Z,19.80
2022-10-20T23:54:34.902Z,18.98
2022-10-20T23:57:02.595Z,16.27
2022-10-20T23:59:29.392Z,18.02
